createdAt,value
2019-05-21T00:01:03.681Z,24.13
2019-05-21T00:04:00.134Z,25.60
2019-05-21T00:06:45.676Z,27.27
2019-05-21T00:09:18.459Z,30.70
2019-05-21T00:11:54.808Z,27.37
2019-05-21T00:14:49.991Z,29.00
2019-05-21T00:17:30.556Z,23.73
2019-05-21T00:20:24.336Z,33.10
2019-05-21T00:23:15.748Z,32.23
2019-05-21T00:25:49.672Z,30.03
2019-05-21T00:28:43.389Z,33.27
2019-05-21T00:31:59.558Z,32.27
2019-05-21T00:35:17.609Z,32.50
2019-05-21T00:38:34.417Z,50.07
2019-05-21T00:41:51.190Z,36.63
2019-05-21T00:44:30.320Z,31.20
2019-05-21T00:47:07.038Z,30.63
2019-05-21T00:49:37.964Z,36.53
2019-05-21T00:52:14.744Z,39.37
2019-05-21T00:54:58.319Z,42.43
2019-05-21T00:57:32.481Z,40.37
2019-05-21T01:00:22.237Z,46.50
2019-05-21T01:02:59.179Z,42.50
2019-05-21T01:05:34.560Z,49.83
2019-05-21T01:08:14.631Z,47.93
2019-05-21T01:10:56.139Z,46.40
2019-05-21T01:13:37.053Z,71.37
2019-05-21T01:16:14.670Z,46.33
2019-05-21T01:18:56.339Z,47.53
2019-05-21T01:21:35.122Z,48.43
2019-05-21T01:24:07.768Z,47.77
2019-05-21T01:26:44.033Z,51.10
2019-05-21T01:29:20.998Z,57.90
2019-05-21T01:31:55.281Z,51.83
2019-05-21T01:34:28.444Z,50.90
2019-05-21T01:37:04.767Z,50.13
2019-05-21T01:39:42.174Z,50.87
2019-05-21T01:42:21.131Z,48.90
2019-05-21T01:45:04.123Z,52.00
2019-05-21T01:47:39.869Z,50.20
2019-05-21T01:50:23.292Z,62.00
2019-05-21T01:52:54.550Z,52.07
2019-05-21T01:55:43.978Z,56.13
2019-05-21T01:58:21.546Z,58.37
2019-05-21T02:01:01.983Z,51.37
2019-05-21T02:03:46.365Z,58.93
2019-05-21T02:06:21.554Z,53.17
2019-05-21T02:08:53.342Z,57.00
2019-05-21T02:11:34.973Z,60.13
2019-05-21T02:14:13.106Z,63.90
2019-05-21T02:16:44.136Z,58.10
2019-05-21T02:19:21.416Z,57.33
2019-05-21T02:22:05.898Z,67.03
2019-05-21T02:24:47.518Z,62.20
2019-05-21T02:27:23.863Z,50.50
2019-05-21T02:30:06.075Z,53.60
2019-05-21T02:32:43.803Z,65.27
2019-05-21T02:35:21.486Z,84.37
2019-05-21T02:38:03.690Z,63.43
2019-05-21T02:40:38.994Z,55.57
2019-05-21T02:43:10.435Z,60.23
2019-05-21T02:45:42.082Z,59.97
2019-05-21T02:48:19.327Z,64.10
2019-05-21T02:50:59.227Z,57.33
2019-05-21T02:53:39.524Z,71.83
2019-05-21T02:56:17.815Z,65.97
2019-05-21T02:58:54.447Z,84.23
2019-05-21T03:01:52.562Z,62.87
2019-05-21T03:04:25.828Z,61.20
2019-05-21T03:07:19.036Z,60.07
2019-05-21T03:09:59.318Z,65.10
2019-05-21T03:13:02.960Z,47.10
2019-05-21T03:15:38.260Z,50.33
2019-05-21T03:18:14.272Z,52.17
2019-05-21T03:20:50.748Z,60.33
2019-05-21T03:23:23.069Z,53.60
2019-05-21T03:25:57.981Z,51.63
2019-05-21T03:28:34.266Z,50.37
2019-05-21T03:31:14.527Z,51.53
2019-05-21T03:33:48.242Z,60.40
2019-05-21T03:36:33.231Z,49.17
2019-05-21T03:39:10.682Z,47.97
2019-05-21T03:41:46.326Z,46.10
2019-05-21T03:44:30.238Z,51.50
2019-05-21T03:47:11.158Z,50.47
2019-05-21T03:49:46.455Z,45.80
2019-05-21T03:52:31.623Z,53.43
2019-05-21T03:55:19.109Z,47.50
2019-05-21T03:58:01.907Z,44.90
2019-05-21T04:00:36.536Z,55.27
2019-05-21T04:03:21.351Z,53.07
2019-05-21T04:06:07.308Z,47.57
2019-05-21T04:08:43.637Z,62.73
2019-05-21T04:11:17.703Z,65.50
2019-05-21T04:13:57.065Z,68.77
2019-05-21T04:16:38.653Z,58.70
2019-05-21T04:19:19.385Z,56.17
2019-05-21T04:21:50.820Z,65.23
2019-05-21T04:24:31.430Z,51.20
2019-05-21T04:27:07.913Z,48.60
2019-05-21T04:29:45.163Z,53.43
2019-05-21T04:32:47.315Z,48.90
2019-05-21T04:35:46.817Z,46.20
2019-05-21T04:38:25.324Z,43.03
2019-05-21T04:42:07.362Z,49.33
2019-05-21T04:53:16.279Z,40.43
2019-05-21T04:56:23.449Z,42.17
2019-05-21T05:02:53.740Z,37.50
2019-05-21T05:05:56.939Z,44.60
2019-05-21T05:08:41.516Z,50.70
2019-05-21T05:11:50.909Z,45.50
2019-05-21T05:14:46.297Z,47.83
2019-05-21T05:17:20.474Z,41.83
2019-05-21T05:24:00.027Z,45.77
2019-05-21T05:34:56.673Z,42.63
2019-05-21T05:37:44.482Z,40.78
2019-05-21T05:41:40.830Z,41.15
2019-05-21T05:59:53.797Z,34.23
2019-05-21T06:03:07.198Z,43.67
2019-05-21T06:06:15.302Z,40.47
2019-05-21T06:09:00.433Z,40.60
2019-05-21T06:11:55.028Z,36.87
2019-05-21T06:14:44.727Z,37.30
2019-05-21T06:17:55.431Z,36.53
2019-05-21T06:20:39.219Z,40.30
2019-05-21T06:23:30.245Z,34.67
2019-05-21T06:26:28.565Z,31.20
2019-05-21T06:29:08.403Z,35.73
2019-05-21T06:31:55.472Z,39.70
2019-05-21T06:34:48.754Z,40.00
2019-05-21T06:37:41.591Z,36.17
2019-05-21T06:40:53.461Z,37.83
2019-05-21T06:44:15.123Z,42.00
2019-05-21T06:47:44.409Z,42.00
2019-05-21T06:50:37.546Z,37.80
2019-05-21T06:54:02.849Z,32.37
2019-05-21T06:57:15.570Z,39.70
2019-05-21T07:00:36.190Z,42.10
2019-05-21T08:11:29.950Z,41.37
2019-05-21T08:15:08.899Z,51.10
2019-05-21T08:18:00.597Z,52.20
2019-05-21T08:21:10.030Z,42.20
2019-05-21T08:28:30.534Z,58.70
2019-05-21T08:31:02.545Z,48.27
2019-05-21T08:34:26.687Z,42.77
2019-05-21T08:37:31.583Z,44.53
2019-05-21T08:47:30.742Z,45.70
2019-05-21T08:50:18.053Z,36.40
2019-05-21T08:53:37.607Z,40.30
2019-05-21T08:56:51.025Z,50.50
2019-05-21T08:59:52.248Z,44.97
2019-05-21T09:03:10.553Z,42.10
2019-05-21T09:06:31.547Z,38.03
2019-05-21T09:09:21.020Z,46.57
2019-05-21T09:12:34.482Z,51.00
2019-05-21T09:15:40.209Z,42.83
2019-05-21T09:18:41.618Z,40.37
2019-05-21T09:21:46.155Z,39.27
2019-05-21T09:25:17.100Z,37.67
2019-05-21T09:28:29.049Z,42.37
2019-05-21T09:31:58.802Z,37.33
2019-05-21T09:35:02.757Z,46.43
2019-05-21T09:41:47.700Z,44.87
2019-05-21T09:45:28.627Z,63.60
2019-05-21T09:48:34.209Z,58.60
2019-05-21T09:55:17.080Z,41.27
2019-05-21T09:58:27.023Z,52.20
2019-05-21T10:01:47.940Z,72.00
2019-05-21T10:09:01.906Z,71.30
2019-05-21T10:12:01.786Z,66.17
2019-05-21T10:18:16.405Z,85.53
2019-05-21T10:25:05.449Z,41.93
2019-05-21T10:31:11.959Z,46.57
2019-05-21T10:34:42.369Z,42.37
2019-05-21T10:38:20.999Z,45.63
2019-05-21T10:41:41.704Z,45.23
2019-05-21T10:44:59.401Z,48.10
2019-05-21T10:48:10.410Z,43.50
2019-05-21T10:51:19.158Z,54.93
2019-05-21T11:05:31.771Z,47.73
2019-05-21T11:08:23.926Z,52.93
2019-05-21T11:11:44.925Z,52.47
2019-05-21T11:14:40.077Z,53.50
2019-05-21T11:18:10.463Z,59.40
2019-05-21T11:24:29.536Z,62.03
2019-05-21T11:36:04.215Z,47.10
2019-05-21T11:42:23.496Z,61.67
2019-05-21T11:46:09.836Z,67.40
2019-05-21T11:52:43.658Z,58.67
2019-05-21T11:56:01.642Z,60.77
2019-05-21T12:02:46.805Z,35.70
2019-05-21T12:06:33.209Z,40.33
2019-05-21T12:13:27.064Z,38.47
2019-05-21T12:17:13.196Z,47.67
2019-05-21T12:20:36.917Z,37.13
2019-05-21T12:24:18.334Z,31.40
2019-05-21T12:27:46.999Z,38.53
2019-05-21T12:30:47.516Z,37.93
2019-05-21T12:34:26.074Z,38.80
2019-05-21T12:37:21.610Z,38.60
2019-05-21T12:49:29.204Z,48.33
2019-05-21T12:52:18.548Z,31.63
2019-05-21T12:55:35.163Z,35.43
2019-05-21T12:58:25.216Z,38.17
2019-05-21T13:01:54.160Z,34.47
2019-05-21T13:05:06.457Z,41.30
2019-05-21T13:08:43.501Z,47.13
2019-05-21T13:12:30.428Z,48.77
2019-05-21T13:19:47.338Z,42.90
2019-05-21T13:23:43.618Z,49.60
2019-05-21T13:30:53.226Z,52.23
2019-05-21T13:34:23.321Z,47.73
2019-05-21T13:37:59.207Z,44.40
2019-05-21T13:41:16.117Z,55.37
2019-05-21T13:44:37.507Z,48.70
2019-05-21T13:47:58.574Z,47.03
2019-05-21T13:51:13.017Z,49.17
2019-05-21T13:58:42.684Z,45.67
2019-05-21T14:01:55.217Z,48.13
2019-05-21T14:08:13.571Z,41.70
2019-05-21T14:11:59.480Z,42.17
2019-05-21T14:15:07.653Z,41.13
2019-05-21T14:41:57.488Z,28.13
2019-05-21T14:44:44.929Z,27.83
2019-05-21T14:51:34.026Z,24.03
2019-05-21T14:54:59.687Z,29.10
2019-05-21T14:57:58.842Z,36.87
2019-05-21T15:05:26.781Z,29.30
2019-05-21T15:09:05.779Z,47.73
2019-05-21T15:16:17.527Z,31.60
2019-05-21T15:19:45.618Z,38.13
2019-05-21T15:34:01.319Z,30.93
2019-05-21T15:37:58.364Z,29.20
2019-05-21T15:41:12.341Z,34.60
2019-05-21T15:47:31.799Z,29.50
2019-05-21T15:50:31.727Z,33.30
2019-05-21T15:53:56.959Z,43.37
2019-05-21T16:01:26.095Z,38.67
2019-05-21T16:23:31.854Z,29.13
2019-05-21T16:34:31.906Z,26.23
2019-05-21T16:37:57.724Z,31.50
2019-05-21T16:40:37.726Z,32.75
2019-05-21T16:43:28.351Z,25.60
2019-05-21T16:55:08.576Z,29.47
2019-05-21T16:57:56.728Z,28.70
2019-05-21T17:00:54.702Z,28.83
2019-05-21T17:04:00.367Z,30.90
2019-05-21T17:06:52.703Z,28.07
2019-05-21T17:10:15.144Z,28.00
2019-05-21T17:13:50.133Z,30.80
2019-05-21T17:16:52.315Z,35.67
2019-05-21T17:27:28.897Z,31.90
2019-05-21T17:30:39.779Z,32.83
2019-05-21T17:33:48.672Z,21.57
2019-05-21T17:36:37.464Z,28.20
2019-05-21T17:39:46.390Z,25.23
2019-05-21T17:42:41.058Z,25.97
2019-05-21T17:46:05.879Z,33.70
2019-05-21T17:53:08.786Z,25.77
2019-05-21T18:03:47.274Z,31.90
2019-05-21T18:10:33.222Z,24.43
2019-05-21T18:20:46.076Z,50.33
2019-05-21T18:23:46.312Z,83.33
2019-05-21T18:30:37.884Z,67.17
2019-05-21T18:41:54.017Z,100.20
2019-05-21T18:45:44.263Z,77.57
2019-05-21T18:48:28.018Z,64.70
2019-05-21T18:55:03.253Z,66.03
2019-05-21T18:57:52.293Z,60.87
2019-05-21T19:08:11.136Z,44.20
2019-05-21T19:11:56.066Z,43.03
2019-05-21T19:15:32.367Z,61.35
2019-05-21T19:18:54.741Z,51.03
2019-05-21T19:22:07.186Z,45.97
2019-05-21T19:27:43.188Z,33.53
2019-05-21T19:34:07.539Z,23.97
2019-05-21T19:36:45.277Z,29.83
2019-05-21T19:43:21.282Z,26.90
2019-05-21T19:47:12.172Z,26.80
2019-05-21T19:49:55.024Z,30.57
2019-05-21T19:53:39.897Z,36.10
2019-05-21T19:57:21.873Z,33.93
2019-05-21T20:04:15.032Z,34.43
2019-05-21T20:07:09.090Z,35.20
2019-05-21T20:10:34.285Z,35.13
2019-05-21T20:14:03.045Z,27.73
2019-05-21T20:18:07.113Z,28.93
2019-05-21T20:20:58.753Z,34.40
2019-05-21T20:23:50.546Z,40.27
2019-05-21T20:35:12.778Z,34.50
2019-05-21T20:38:23.299Z,31.17
2019-05-21T20:41:13.077Z,31.57
2019-05-21T20:44:27.564Z,39.43
2019-05-21T20:47:59.965Z,38.60
2019-05-21T20:51:26.012Z,26.80
2019-05-21T21:04:42.476Z,44.03
2019-05-21T21:15:15.556Z,50.53
2019-05-21T21:18:06.959Z,47.00
2019-05-21T21:21:22.301Z,50.37
2019-05-21T21:24:04.543Z,57.70
2019-05-21T21:27:44.891Z,42.10
2019-05-21T21:31:01.580Z,50.43
2019-05-21T21:37:47.241Z,59.20
2019-05-21T21:41:00.915Z,146.07
2019-05-21T21:44:33.486Z,49.87
2019-05-21T21:51:36.670Z,79.97
2019-05-21T21:54:47.337Z,57.47
2019-05-21T22:01:32.218Z,69.90
2019-05-21T22:04:35.081Z,73.33
2019-05-21T22:07:25.071Z,62.10
2019-05-21T22:10:25.912Z,71.73
2019-05-21T22:13:41.062Z,70.50
2019-05-21T22:16:42.535Z,82.90
2019-05-21T22:20:06.389Z,56.67
2019-05-21T22:23:24.144Z,61.83
2019-05-21T22:26:43.800Z,71.20
2019-05-21T22:29:22.795Z,100.63
2019-05-21T22:31:55.229Z,78.47
2019-05-21T22:34:27.165Z,71.13
2019-05-21T22:37:13.122Z,80.40
2019-05-21T22:39:39.972Z,86.87
2019-05-21T22:42:26.212Z,75.77
2019-05-21T22:45:21.163Z,80.40
2019-05-21T22:47:54.496Z,71.20
2019-05-21T22:50:39.291Z,80.70
2019-05-21T22:53:19.098Z,72.10
2019-05-21T22:56:09.119Z,67.10
2019-05-21T22:59:05.626Z,66.43
2019-05-21T23:01:52.951Z,83.97
2019-05-21T23:08:21.169Z,77.90
2019-05-21T23:11:13.704Z,75.73
2019-05-21T23:14:06.035Z,64.00
2019-05-21T23:16:51.444Z,70.60
2019-05-21T23:19:48.833Z,67.33
2019-05-21T23:22:33.040Z,79.80
2019-05-21T23:28:21.076Z,76.03
2019-05-21T23:31:00.574Z,67.47
2019-05-21T23:33:54.621Z,64.67
2019-05-21T23:36:39.698Z,77.10
2019-05-21T23:39:16.050Z,76.77
2019-05-21T23:42:29.391Z,72.97
2019-05-21T23:45:28.341Z,69.37
2019-05-21T23:48:20.523Z,63.70
2019-05-21T23:51:17.532Z,74.07
2019-05-21T23:54:03.341Z,74.33
2019-05-21T23:57:07.880Z,86.73
2019-05-21T23:59:50.882Z,74.00
